createdAt,value
2018-11-20T00:25:02.664Z,23.6
2018-11-20T00:25:51.809Z,23.6
2018-11-20T00:26:42.704Z,23.6
2018-11-20T00:27:32.794Z,23.6
2018-11-20T00:28:24.183Z,23.6
2018-11-20T00:29:11.919Z,23.6
2018-11-20T00:30:03.500Z,23.6
2018-11-20T00:30:52.768Z,23.6
2018-11-20T00:31:42.582Z,23.5
2018-11-20T00:32:32.704Z,23.5
2018-11-20T00:33:22.635Z,23.4
2018-11-20T00:34:12.548Z,23.4
2018-11-20T00:35:02.891Z,23.4
2018-11-20T00:35:53.435Z,23.4
2018-11-20T00:36:43.385Z,23.4
2018-11-20T00:37:32.950Z,23.4
2018-11-20T00:38:23.906Z,23.4
2018-11-20T00:39:13.331Z,23.4
2018-11-20T00:40:04.690Z,23.4
2018-11-20T00:40:54.053Z,23.3
2018-11-20T00:41:44.611Z,23.4
2018-11-20T00:42:37.063Z,23.3
2018-11-20T00:43:24.163Z,23.3
2018-11-20T00:44:14.430Z,23.3
2018-11-20T00:45:04.370Z,23.3
2018-11-20T00:45:54.790Z,23.3
2018-11-20T00:46:44.336Z,23.2
2018-11-20T00:47:34.098Z,22.9
2018-11-20T00:48:25.417Z,22.6
2018-11-20T00:49:14.791Z,21.8
2018-11-20T00:50:04.620Z,21.2
2018-11-20T00:50:56.280Z,20.6
2018-11-20T00:51:44.627Z,20.1
2018-11-20T00:52:34.122Z,19.4
2018-11-20T00:53:24.166Z,18.8
2018-11-20T00:54:14.754Z,18.1
2018-11-20T00:55:05.266Z,18.1
2018-11-20T00:55:55.356Z,18.3
2018-11-20T00:56:46.228Z,19.2
2018-11-20T00:57:35.685Z,20
2018-11-20T00:58:24.279Z,20.7
2018-11-20T00:59:15.519Z,21.3
2018-11-20T01:00:04.573Z,21.8
2018-11-20T01:00:55.896Z,22.1
2018-11-20T01:01:45.371Z,22.4
2018-11-20T01:02:35.863Z,22.7
2018-11-20T01:03:26.944Z,22.9
2018-11-20T01:04:16.116Z,23.1
2018-11-20T01:05:06.911Z,23.3
2018-11-20T01:05:55.668Z,23.4
2018-11-20T01:06:45.221Z,23.6
2018-11-20T01:07:36.933Z,23.7
2018-11-20T01:08:26.026Z,23.8
2018-11-20T01:09:16.242Z,23.9
2018-11-20T01:10:05.373Z,24.1
2018-11-20T01:10:56.340Z,24.1
2018-11-20T01:11:46.986Z,24.2
2018-11-20T01:12:36.903Z,24.3
2018-11-20T01:13:25.616Z,24.2
2018-11-20T01:14:16.494Z,23.6
2018-11-20T01:15:04.918Z,23.1
2018-11-20T01:15:55.655Z,22.8
2018-11-20T01:16:46.302Z,22.4
2018-11-20T01:17:36.742Z,22.2
2018-11-20T01:18:26.007Z,22
2018-11-20T01:19:17.406Z,21.8
2018-11-20T01:20:06.082Z,21.7
2018-11-20T01:20:56.018Z,21.6
2018-11-20T01:21:47.917Z,21.4
2018-11-20T01:22:37.685Z,21.3
2018-11-20T01:23:27.752Z,21.2
2018-11-20T01:24:17.437Z,21.1
2018-11-20T01:25:06.102Z,20.9
2018-11-20T01:25:57.645Z,20.7
2018-11-20T01:26:46.333Z,20.6
2018-11-20T01:27:36.856Z,20.4
2018-11-20T01:28:27.599Z,20.3
2018-11-20T01:29:16.782Z,20.2
2018-11-20T01:30:06.802Z,20.1
2018-11-20T01:30:58.767Z,20.7
2018-11-20T01:31:48.362Z,21.4
2018-11-20T01:32:38.196Z,21.9
2018-11-20T01:33:27.849Z,22.2
2018-11-20T01:34:17.106Z,22.5
2018-11-20T01:35:06.902Z,22.8
2018-11-20T01:35:58.481Z,22.9
2018-11-20T01:36:47.346Z,23.1
2018-11-20T01:37:37.636Z,23.3
2018-11-20T01:38:28.221Z,23.4
2018-11-20T01:39:17.883Z,23.5
2018-11-20T01:40:07.361Z,23.6
2018-11-20T01:40:57.481Z,23.8
2018-11-20T01:41:47.216Z,23.8
2018-11-20T01:42:37.081Z,23.9
2018-11-20T01:43:27.499Z,23.9
2018-11-20T01:44:19.051Z,24.1
2018-11-20T01:45:08.251Z,24.1
2018-11-20T01:45:58.531Z,24.2
2018-11-20T01:46:47.218Z,24.2
2018-11-20T01:47:38.859Z,24.3
2018-11-20T01:48:29.233Z,24.3
2018-11-20T01:49:17.435Z,23.8
2018-11-20T01:50:08.138Z,23.3
2018-11-20T01:50:58.368Z,22.8
2018-11-20T01:51:49.663Z,22.5
2018-11-20T01:52:38.451Z,22.3
2018-11-20T01:53:28.612Z,22.1
2018-11-20T01:54:19.196Z,21.9
2018-11-20T01:55:09.233Z,21.7
2018-11-20T01:55:58.933Z,21.6
2018-11-20T01:56:49.315Z,21.4
2018-11-20T01:57:38.467Z,21.3
2018-11-20T01:58:29.248Z,21.2
2018-11-20T02:00:07.505Z,20.9
2018-11-20T02:00:59.119Z,20.8
2018-11-20T02:01:50.064Z,20.6
2018-11-20T02:02:38.701Z,20.4
2018-11-20T02:03:29.747Z,20.3
2018-11-20T02:04:20.013Z,20.2
2018-11-20T02:05:09.105Z,20.1
2018-11-20T02:06:00.468Z,20.3
2018-11-20T02:06:50.264Z,20.9
2018-11-20T02:07:40.300Z,21.5
2018-11-20T02:08:29.250Z,21.9
2018-11-20T02:09:19.657Z,22.3
2018-11-20T02:10:09.573Z,22.5
2018-11-20T02:10:59.987Z,22.8
2018-11-20T02:11:50.163Z,22.9
2018-11-20T02:12:40.698Z,23.1
2018-11-20T02:13:28.943Z,23.2
2018-11-20T02:14:20.117Z,23.3
2018-11-20T02:15:10.057Z,23.4
2018-11-20T02:16:01.184Z,23.4
2018-11-20T02:16:49.862Z,23.6
2018-11-20T02:17:40.389Z,23.6
2018-11-20T02:18:30.249Z,23.8
2018-11-20T02:19:20.396Z,23.8
2018-11-20T02:20:09.689Z,23.9
2018-11-20T02:21:01.757Z,23.9
2018-11-20T02:21:51.620Z,23.9
2018-11-20T02:22:41.381Z,24
2018-11-20T02:23:31.972Z,24.1
2018-11-20T02:24:20.229Z,24.1
2018-11-20T02:25:11.019Z,24.1
2018-11-20T02:26:01.876Z,24.2
2018-11-20T02:26:51.501Z,24.2
2018-11-20T02:27:40.938Z,24.1
2018-11-20T02:28:31.581Z,23.5
2018-11-20T02:29:21.660Z,23.1
2018-11-20T02:30:12.078Z,22.6
2018-11-20T02:31:00.331Z,22.4
2018-11-20T02:31:51.918Z,22.1
2018-11-20T02:32:40.871Z,21.9
2018-11-20T02:33:32.810Z,21.8
2018-11-20T02:34:20.873Z,21.6
2018-11-20T02:35:12.258Z,21.5
2018-11-20T02:36:01.389Z,21.3
2018-11-20T02:36:51.980Z,21.2
2018-11-20T02:37:42.773Z,21.2
2018-11-20T02:38:31.201Z,21
2018-11-20T02:39:22.033Z,20.8
2018-11-20T02:40:12.911Z,20.6
2018-11-20T02:41:02.279Z,20.4
2018-11-20T02:41:52.898Z,20.3
2018-11-20T02:42:42.303Z,20.2
2018-11-20T02:43:32.258Z,20.1
2018-11-20T02:44:22.033Z,20.1
2018-11-20T02:45:12.108Z,20.8
2018-11-20T02:46:02.510Z,21.3
2018-11-20T02:46:51.841Z,21.8
2018-11-20T02:47:42.609Z,22.1
2018-11-20T02:48:35.374Z,22.4
2018-11-20T02:49:20.625Z,22.6
2018-11-20T02:50:13.092Z,22.8
2018-11-20T02:51:01.935Z,22.9
2018-11-20T02:51:53.454Z,23
2018-11-20T02:52:43.216Z,23.1
2018-11-20T02:53:33.087Z,23.1
2018-11-20T02:54:22.342Z,23.3
2018-11-20T02:55:11.847Z,23.3
2018-11-20T02:56:03.780Z,23.4
2018-11-20T02:56:53.785Z,23.4
2018-11-20T02:57:43.086Z,23.4
2018-11-20T02:58:32.535Z,23.4
2018-11-20T02:59:23.462Z,23.5
2018-11-20T03:00:13.967Z,23.6
2018-11-20T03:01:03.552Z,23.6
2018-11-20T03:01:53.376Z,23.6
2018-11-20T03:02:43.307Z,23.6
2018-11-20T03:03:33.757Z,23.6
2018-11-20T03:04:23.817Z,23.6
2018-11-20T03:05:13.808Z,23.6
2018-11-20T03:06:03.257Z,23.6
2018-11-20T03:06:53.744Z,23.6
2018-11-20T03:07:43.998Z,23.6
2018-11-20T03:08:34.241Z,23.6
2018-11-20T03:09:24.656Z,23.6
2018-11-20T03:10:14.534Z,23.6
2018-11-20T03:11:04.082Z,23.6
2018-11-20T03:11:53.709Z,23.6
2018-11-20T03:12:43.662Z,23.5
2018-11-20T03:13:34.958Z,23.5
2018-11-20T03:14:23.948Z,23.4
2018-11-20T03:15:14.366Z,23.4
2018-11-20T03:16:04.569Z,23.4
2018-11-20T03:16:54.395Z,23.4
2018-11-20T03:17:45.321Z,23.4
2018-11-20T03:18:34.948Z,23.4
2018-11-20T03:19:24.181Z,23.4
2018-11-20T03:20:14.711Z,23.4
2018-11-20T03:21:05.518Z,23.4
2018-11-20T03:21:55.492Z,23.4
2018-11-20T03:22:45.273Z,23.4
2018-11-20T03:23:35.107Z,23.4
2018-11-20T03:24:25.095Z,23.4
2018-11-20T03:25:14.920Z,23.3
2018-11-20T03:26:05.607Z,23.3
2018-11-20T03:26:55.744Z,23.3
2018-11-20T03:27:45.328Z,23.3
2018-11-20T03:28:35.835Z,23.1
2018-11-20T03:29:26.293Z,22.6
2018-11-20T03:30:15.170Z,21.9
2018-11-20T03:31:05.681Z,21.3
2018-11-20T03:31:55.637Z,20.8
2018-11-20T03:32:46.137Z,20.2
2018-11-20T03:33:35.687Z,19.5
2018-11-20T03:34:26.469Z,18.9
2018-11-20T03:35:15.910Z,18.3
2018-11-20T03:36:06.241Z,18
2018-11-20T03:36:56.354Z,18.1
2018-11-20T03:37:46.371Z,18.8
2018-11-20T03:38:35.800Z,19.7
2018-11-20T03:39:25.655Z,20.4
2018-11-20T03:40:17.005Z,21.1
2018-11-20T03:41:06.387Z,21.6
2018-11-20T03:41:56.971Z,22
2018-11-20T03:42:45.906Z,22.4
2018-11-20T03:43:35.789Z,22.6
2018-11-20T03:44:26.835Z,22.8
2018-11-20T03:45:16.539Z,23.1
2018-11-20T03:46:06.316Z,23.3
2018-11-20T03:46:56.691Z,23.4
2018-11-20T03:47:47.053Z,23.6
2018-11-20T03:48:35.974Z,23.7
2018-11-20T03:49:27.098Z,23.8
2018-11-20T03:50:16.899Z,23.9
2018-11-20T03:51:07.374Z,24.1
2018-11-20T03:51:57.031Z,24.1
2018-11-20T03:52:46.459Z,24.3
2018-11-20T03:53:36.356Z,24.3
2018-11-20T03:54:26.283Z,24.3
2018-11-20T03:55:17.297Z,23.7
2018-11-20T03:56:06.248Z,23.1
2018-11-20T03:56:57.165Z,22.8
2018-11-20T03:57:46.354Z,22.4
2018-11-20T03:58:36.513Z,22.2
2018-11-20T03:59:26.408Z,22
2018-11-20T04:00:16.566Z,21.8
2018-11-20T04:01:06.842Z,21.6
2018-11-20T04:01:57.353Z,21.5
2018-11-20T04:02:48.142Z,21.4
2018-11-20T04:03:38.365Z,21.3
2018-11-20T04:06:07.443Z,21.6
2018-11-20T04:06:57.815Z,22.2
2018-11-20T04:07:48.352Z,22.6
2018-11-20T04:08:38.975Z,22.9
2018-11-20T04:09:28.858Z,23.1
2018-11-20T04:10:19.060Z,23.3
2018-11-20T04:11:07.487Z,23.4
2018-11-20T04:11:57.687Z,23.6
2018-11-20T04:12:49.566Z,23.7
2018-11-20T04:13:38.137Z,23.8
2018-11-20T04:14:29.528Z,23.9
2018-11-20T04:15:16.637Z,24
2018-11-20T04:16:09.146Z,24.1
2018-11-20T04:16:59.271Z,24.1
2018-11-20T04:17:50.056Z,24.2
2018-11-20T04:18:39.739Z,24.3
2018-11-20T04:19:29.354Z,24.1
2018-11-20T04:20:18.760Z,23.5
2018-11-20T04:21:09.113Z,23
2018-11-20T04:21:59.366Z,22.6
2018-11-20T04:22:49.446Z,22.3
2018-11-20T04:23:39.879Z,22.1
2018-11-20T04:24:29.106Z,21.9
2018-11-20T04:25:35.412Z,21.8
2018-11-20T04:26:09.946Z,21.6
2018-11-20T04:27:00.587Z,21.4
2018-11-20T04:27:50.414Z,21.3
2018-11-20T04:28:39.526Z,21.3
2018-11-20T04:29:28.886Z,21.1
2018-11-20T04:30:21.383Z,20.9
2018-11-20T04:31:10.844Z,20.7
2018-11-20T04:32:00.508Z,20.5
2018-11-20T04:32:50.146Z,20.4
2018-11-20T04:33:41.081Z,20.3
2018-11-20T04:34:30.355Z,20.1
2018-11-20T04:35:20.546Z,20.1
2018-11-20T04:36:11.190Z,20.4
2018-11-20T04:37:00.249Z,21.1
2018-11-20T09:08:44.829Z,24.6
2018-11-20T09:09:35.167Z,24.6
2018-11-20T09:10:24.922Z,24
2018-11-20T09:11:13.097Z,23.4
2018-11-20T09:12:04.681Z,23
2018-11-20T09:12:54.090Z,22.7
2018-11-20T09:13:46.131Z,22.4
2018-11-20T09:14:34.994Z,22.1
2018-11-20T09:15:24.298Z,22
2018-11-20T09:16:14.699Z,21.8
2018-11-20T09:17:05.787Z,21.7
2018-11-20T09:17:55.479Z,21.6
2018-11-20T09:18:44.506Z,21.4
2018-11-20T09:19:35.881Z,21.4
2018-11-20T09:20:27.192Z,21.3
2018-11-20T09:21:15.921Z,21
2018-11-20T09:22:05.492Z,20.8
2018-11-20T09:22:55.378Z,20.6
2018-11-20T09:23:46.263Z,20.5
2018-11-20T09:24:34.764Z,20.3
2018-11-20T09:25:23.984Z,20.2
2018-11-20T09:26:15.831Z,20.1
2018-11-20T09:27:05.791Z,20.1
2018-11-20T09:27:56.097Z,20.3
2018-11-20T09:29:35.912Z,21.7
2018-11-20T09:30:25.051Z,22.2
2018-11-20T09:31:14.866Z,22.6
2018-11-20T09:32:04.675Z,22.8
2018-11-20T09:32:56.568Z,23.1
2018-11-20T09:33:46.248Z,23.3
2018-11-20T09:34:38.137Z,23.5
2018-11-20T09:35:28.438Z,23.7
2018-11-20T09:36:16.762Z,23.9
2018-11-20T09:37:05.938Z,24
2018-11-20T09:37:56.532Z,24.1
2018-11-20T09:38:44.376Z,24.3
2018-11-20T09:39:37.330Z,24.4
2018-11-20T09:40:25.343Z,24.4
2018-11-20T09:41:16.290Z,24.6
2018-11-20T09:42:06.392Z,24.6
2018-11-20T09:42:56.843Z,24.4
2018-11-20T09:43:46.695Z,23.7
2018-11-20T09:44:37.129Z,23.3
2018-11-20T09:45:26.515Z,22.9
2018-11-20T09:46:16.947Z,22.6
2018-11-20T09:47:07.224Z,22.3
2018-11-20T09:47:56.775Z,22.1
2018-11-20T09:48:47.682Z,21.9
2018-11-20T09:49:37.825Z,21.8
2018-11-20T09:50:26.954Z,21.6
2018-11-20T09:51:17.254Z,21.5
2018-11-20T09:52:06.850Z,21.4
2018-11-20T09:52:58.483Z,21.3
2018-11-20T09:54:37.952Z,21.1
2018-11-20T09:55:27.521Z,21
2018-11-20T09:57:08.261Z,21.8
2018-11-20T09:57:57.069Z,22.4
2018-11-20T09:58:47.936Z,22.7
2018-11-20T09:59:39.450Z,23
2018-11-20T10:00:29.079Z,23.3
2018-11-20T10:01:18.271Z,23.4
2018-11-20T10:02:08.622Z,23.6
2018-11-20T10:02:58.389Z,23.8
2018-11-20T10:03:49.511Z,24
2018-11-20T10:04:37.779Z,24.1
2018-11-20T10:05:29.408Z,24.2
2018-11-20T10:06:18.404Z,24.3
2018-11-20T10:07:10.482Z,24.4
2018-11-20T10:07:58.211Z,24.6
2018-11-20T10:08:50.113Z,24.6
2018-11-20T10:09:39.378Z,24.5
2018-11-20T10:10:27.291Z,23.9
2018-11-20T10:11:18.606Z,23.4
2018-11-20T10:12:07.884Z,22.9
2018-11-20T10:12:58.540Z,22.6
2018-11-20T10:13:49.275Z,22.3
2018-11-20T10:14:39.636Z,22.2
2018-11-20T10:15:29.101Z,22
2018-11-20T10:16:18.098Z,21.8
2018-11-20T10:17:08.695Z,21.7
2018-11-20T10:17:59.097Z,21.6
2018-11-20T10:18:48.607Z,21.4
2018-11-20T10:19:39.555Z,21.3
2018-11-20T10:20:29.923Z,21.2
2018-11-20T10:22:11.717Z,21
2018-11-20T10:22:58.837Z,20.9
2018-11-20T10:23:50.621Z,21.3
2018-11-20T10:24:39.952Z,21.9
2018-11-20T10:25:32.469Z,22.5
2018-11-20T10:26:20.143Z,22.8
2018-11-20T10:27:10.379Z,23.1
2018-11-20T10:27:59.237Z,23.3
2018-11-20T10:28:50.160Z,23.5
2018-11-20T10:29:39.406Z,23.7
2018-11-20T10:30:30.515Z,23.9
2018-11-20T10:31:21.179Z,24
2018-11-20T10:32:10.457Z,24.1
2018-11-20T10:33:00.814Z,24.3
2018-11-20T10:33:50.409Z,24.4
2018-11-20T10:34:41.315Z,24.5
2018-11-20T10:35:30.583Z,24.6
2018-11-20T10:36:21.757Z,24.7
2018-11-20T10:37:09.830Z,24.5
2018-11-20T10:38:00.109Z,23.9
2018-11-20T10:38:51.102Z,23.4
2018-11-20T10:39:41.204Z,22.9
2018-11-20T10:40:30.302Z,22.6
2018-11-20T10:41:22.469Z,22.4
2018-11-20T10:42:10.034Z,22.2
2018-11-20T10:43:00.076Z,22
2018-11-20T10:43:50.981Z,21.8
2018-11-20T10:44:41.201Z,21.7
2018-11-20T10:45:31.784Z,21.6
2018-11-20T10:46:23.877Z,21.4
2018-11-20T10:47:10.363Z,21.4
2018-11-20T10:48:01.134Z,21.3
2018-11-20T10:49:41.875Z,21
2018-11-20T10:50:31.563Z,21
2018-11-20T10:51:21.974Z,21.2
2018-11-20T10:52:09.587Z,21.9
2018-11-20T10:53:01.760Z,22.4
2018-11-20T10:53:51.277Z,22.8
2018-11-20T10:54:41.025Z,23
2018-11-20T10:55:30.998Z,23.3
2018-11-20T10:56:20.857Z,23.5
2018-11-20T10:57:12.066Z,23.7
2018-11-20T10:58:01.310Z,23.9
2018-11-20T10:58:52.060Z,24.1
2018-11-20T10:59:43.598Z,24.2
2018-11-20T11:00:31.588Z,24.3
2018-11-20T11:01:23.333Z,24.4
2018-11-20T11:02:11.175Z,24.5
2018-11-20T11:03:01.942Z,24.6
2018-11-20T11:03:51.852Z,24.8
2018-11-20T11:04:41.962Z,24.4
2018-11-20T11:05:32.071Z,23.8
2018-11-20T11:06:24.960Z,23.3
2018-11-20T11:07:19.147Z,22.9
2018-11-20T11:08:04.113Z,22.6
2018-11-20T11:08:52.972Z,22.4
2018-11-20T11:09:41.805Z,22.1
2018-11-20T11:10:32.752Z,22
2018-11-20T11:11:24.222Z,21.8
2018-11-20T11:12:16.407Z,21.7
2018-11-20T11:13:03.845Z,21.6
2018-11-20T11:13:54.167Z,21.5
2018-11-20T11:14:44.117Z,21.3
2018-11-20T11:15:33.425Z,21.3
2018-11-20T11:17:14.312Z,21
2018-11-20T11:18:03.481Z,21
2018-11-20T11:19:44.171Z,21.8
2018-11-20T11:20:35.834Z,22.4
2018-11-20T11:21:23.231Z,22.8
2018-11-20T11:22:13.772Z,23
2018-11-20T11:23:05.996Z,23.3
2018-11-20T11:23:54.282Z,23.5
2018-11-20T11:24:43.500Z,23.7
2018-11-20T11:25:33.896Z,23.9
2018-11-20T11:26:23.418Z,24.1
2018-11-20T11:27:13.633Z,24.2
2018-11-20T11:28:03.991Z,24.3
2018-11-20T11:28:57.462Z,24.4
2018-11-20T11:29:43.590Z,24.5
2018-11-20T11:30:33.611Z,24.6
2018-11-20T11:31:23.962Z,24.7
2018-11-20T11:32:13.858Z,24.4
2018-11-20T11:33:03.651Z,23.8
2018-11-20T11:33:53.448Z,23.3
2018-11-20T11:34:44.095Z,22.9
2018-11-20T11:35:33.509Z,22.6
2018-11-20T11:36:23.246Z,22.4
2018-11-20T11:37:13.663Z,22.2
2018-11-20T11:38:05.359Z,22
2018-11-20T11:38:54.100Z,21.8
2018-11-20T11:39:45.165Z,21.7
2018-11-20T11:40:34.465Z,21.6
2018-11-20T11:41:24.390Z,21.5
2018-11-20T11:42:14.643Z,21.4
2018-11-20T11:43:04.810Z,21.3
2018-11-20T11:44:44.615Z,21.1
2018-11-20T11:45:34.460Z,20.9
2018-11-20T11:46:24.775Z,21
2018-11-20T11:47:15.132Z,21.6
2018-11-20T11:48:05.933Z,22.2
2018-11-20T11:48:55.028Z,22.6
2018-11-20T11:49:45.329Z,22.9
2018-11-20T11:50:34.142Z,23.2
2018-11-20T11:51:29.277Z,23.4
2018-11-20T11:52:16.163Z,23.6
2018-11-20T11:53:06.459Z,23.8
2018-11-20T11:53:55.251Z,23.9
2018-11-20T11:54:45.697Z,24.1
2018-11-20T11:55:34.661Z,24.3
2018-11-20T11:56:26.012Z,24.4
2018-11-20T11:57:15.479Z,24.5
2018-11-20T11:58:05.229Z,24.6
2018-11-20T11:58:55.374Z,24.7
2018-11-20T11:59:45.150Z,24.8
2018-11-20T12:00:36.154Z,24.2
2018-11-20T12:01:25.858Z,23.6
2018-11-20T12:03:54.577Z,22.6
2018-11-20T12:04:46.362Z,22.3
2018-11-20T12:05:35.643Z,22.1
2018-11-20T12:06:25.224Z,22
2018-11-20T12:07:16.667Z,21.8
2018-11-20T12:08:06.794Z,21.7
2018-11-20T12:08:57.153Z,21.6
2018-11-20T12:09:46.482Z,21.4
2018-11-20T12:10:41.746Z,21.4
2018-11-20T12:11:27.001Z,21.2
2018-11-20T12:13:07.134Z,21
2018-11-20T12:13:55.796Z,21
2018-11-20T12:15:36.688Z,21.9
2018-11-20T12:16:27.284Z,22.4
2018-11-20T12:17:17.025Z,22.8
2018-11-20T12:18:07.482Z,23.1
2018-11-20T12:18:59.108Z,23.3
2018-11-20T12:19:47.546Z,23.6
2018-11-20T12:20:36.538Z,23.7
2018-11-20T12:21:26.975Z,23.9
2018-11-20T12:22:17.513Z,24.1
2018-11-20T12:23:07.843Z,24.2
2018-11-20T12:23:57.785Z,24.3
2018-11-20T12:24:50.050Z,24.4
2018-11-20T12:25:37.642Z,24.6
2018-11-20T12:26:27.810Z,24.6
2018-11-20T12:27:16.983Z,24.8
2018-11-20T12:28:07.358Z,24.6
2018-11-20T12:29:03.360Z,23.9
2018-11-20T12:29:48.357Z,23.3
2018-11-20T12:30:37.838Z,23
2018-11-20T12:31:32.552Z,22.7
2018-11-20T12:32:17.520Z,22.4
2018-11-20T12:33:08.530Z,22.2
2018-11-20T12:34:02.252Z,22.1
2018-11-20T12:34:48.686Z,21.9
2018-11-20T12:35:46.565Z,21.8
2018-11-20T12:36:30.489Z,21.6
2018-11-20T12:37:18.670Z,21.5
2018-11-20T12:38:07.854Z,21.4
2018-11-20T12:39:00.296Z,21.3
2018-11-20T12:39:49.647Z,21.2
2018-11-20T12:41:31.487Z,21
2018-11-20T12:42:19.410Z,21
2018-11-20T12:43:08.467Z,21.4
2018-11-20T12:44:05.967Z,21.9
2018-11-20T12:44:48.069Z,22.5
2018-11-20T12:45:41.633Z,22.8
2018-11-20T12:46:27.593Z,23.1
2018-11-20T12:47:20.836Z,23.4
2018-11-20T12:48:11.343Z,23.6
2018-11-20T12:49:03.279Z,23.8
2018-11-20T12:49:52.761Z,23.9
2018-11-20T12:50:40.213Z,24.1
2018-11-20T12:51:32.877Z,24.2
2018-11-20T12:52:20.164Z,24.3
2018-11-20T12:53:11.776Z,24.4
2018-11-20T12:54:02.026Z,24.6
2018-11-20T12:54:53.058Z,24.7
2018-11-20T12:55:42.751Z,24.8
2018-11-20T12:56:29.261Z,24.3
2018-11-20T12:57:21.176Z,23.8
2018-11-20T12:58:09.763Z,23.3
2018-11-20T12:59:01.638Z,22.9
2018-11-20T12:59:50.570Z,22.6
2018-11-20T13:00:42.981Z,22.4
2018-11-20T13:01:30.253Z,22.2
2018-11-20T13:02:20.657Z,22
2018-11-20T13:03:09.443Z,21.9
2018-11-20T13:03:59.890Z,21.8
2018-11-20T13:04:52.403Z,21.6
2018-11-20T13:05:42.355Z,21.5
2018-11-20T13:06:31.150Z,21.4
2018-11-20T13:07:22.900Z,21.3
2018-11-20T13:08:10.789Z,21.2
2018-11-20T13:09:51.960Z,21
2018-11-20T13:10:40.153Z,21.1
2018-11-20T13:11:30.661Z,21.6
2018-11-20T13:12:20.962Z,22.2
2018-11-20T13:13:11.537Z,22.6
2018-11-20T13:14:05.072Z,23
2018-11-20T13:14:53.588Z,23.3
2018-11-20T13:15:41.916Z,23.4
2018-11-20T13:16:30.569Z,23.6
2018-11-20T13:17:23.585Z,23.8
2018-11-20T13:18:12.732Z,24
2018-11-20T13:19:02.766Z,24.1
2018-11-20T13:19:51.684Z,24.3
2018-11-20T13:20:42.096Z,24.4
2018-11-20T13:21:31.282Z,24.5
2018-11-20T13:22:22.959Z,24.6
2018-11-20T13:23:12.481Z,24.8
2018-11-20T13:24:01.079Z,24.8
2018-11-20T13:24:51.011Z,24.3
2018-11-20T13:25:42.416Z,23.7
2018-11-20T13:26:33.026Z,23.3
2018-11-20T13:27:21.606Z,22.9
2018-11-20T13:28:12.302Z,22.6
2018-11-20T13:29:01.883Z,22.4
2018-11-20T13:29:51.496Z,22.2
2018-11-20T13:30:42.474Z,22
2018-11-20T13:31:32.686Z,21.9
2018-11-20T13:32:22.424Z,21.8
2018-11-20T13:33:13.942Z,21.6
2018-11-20T13:34:04.113Z,21.5
2018-11-20T13:35:42.485Z,21.3
2018-11-20T13:36:32.608Z,21.2
2018-11-20T13:37:23.853Z,21.1
2018-11-20T13:38:11.649Z,21
2018-11-20T13:39:05.408Z,21
2018-11-20T13:39:52.053Z,21.6
2018-11-20T13:40:41.763Z,22.2
2018-11-20T13:41:32.198Z,22.6
2018-11-20T13:42:22.772Z,22.9
2018-11-20T13:43:14.757Z,23.2
2018-11-20T13:44:03.626Z,23.4
2018-11-20T13:44:55.152Z,23.6
2018-11-20T13:45:43.724Z,23.8
2018-11-20T13:46:35.210Z,24
2018-11-20T13:47:22.341Z,24.1
2018-11-20T13:48:13.897Z,24.3
2018-11-20T13:49:03.242Z,24.4
2018-11-20T13:49:54.922Z,24.5
2018-11-20T13:50:43.667Z,24.6
2018-11-20T14:07:31.329Z,21
2018-11-20T14:08:21.401Z,21.4
2018-11-20T14:09:12.229Z,22.1
2018-11-20T14:10:02.026Z,22.6
2018-11-20T14:10:51.916Z,22.9
2018-11-20T14:11:56.944Z,23.2
2018-11-20T14:12:32.089Z,23.4
2018-11-20T14:13:22.959Z,23.6
2018-11-20T14:14:11.936Z,23.8
2018-11-20T14:15:02.529Z,23.9
2018-11-20T14:16:06.438Z,24.1
2018-11-20T14:16:42.140Z,24.3
2018-11-20T14:17:32.470Z,24.3
2018-11-20T14:18:22.955Z,24.4
2018-11-20T14:19:27.636Z,24.6
2018-11-20T14:20:02.855Z,24.7
2018-11-20T14:20:52.648Z,24.7
2018-11-20T14:21:42.688Z,24.6
2018-11-20T14:22:32.462Z,24
2018-11-20T14:23:38.722Z,23.5
2018-11-20T14:24:12.715Z,23
2018-11-20T14:25:02.525Z,22.8
2018-11-20T14:25:52.945Z,22.5
2018-11-20T14:26:57.736Z,22.3
2018-11-20T14:27:32.975Z,22.1
2018-11-20T14:28:38.127Z,22
2018-11-20T14:29:13.790Z,21.8
2018-11-20T14:30:18.078Z,21.7
2018-11-20T14:30:52.795Z,21.6
2018-11-20T14:31:43.673Z,21.5
2018-11-20T14:32:33.300Z,21.4
2018-11-20T14:33:22.870Z,21.3
2018-11-20T14:35:04.391Z,21.1
2018-11-20T14:35:53.402Z,21.1
2018-11-20T14:36:59.947Z,21.3
2018-11-20T14:37:35.464Z,22.1
2018-11-20T14:38:37.477Z,22.6
2018-11-20T14:39:14.231Z,22.8
2018-11-20T14:40:04.490Z,23
2018-11-20T14:41:26.761Z,23.3
2018-11-20T14:41:43.237Z,23.6
2018-11-20T14:42:33.074Z,23.7
2018-11-20T14:43:24.221Z,23.9
2018-11-20T14:44:14.074Z,24
2018-11-20T14:45:04.071Z,24.2
2018-11-20T14:45:54.203Z,24.3
2018-11-20T14:46:44.649Z,24.4
2018-11-20T14:47:34.089Z,24.5
2018-11-20T14:48:38.676Z,24.6
2018-11-20T14:49:14.371Z,24.8
2018-11-20T14:50:03.815Z,24.6
2018-11-20T14:51:08.614Z,24
2018-11-20T14:51:43.723Z,23.3
2018-11-20T14:52:35.813Z,23.1
2018-11-20T14:53:24.407Z,22.8
2018-11-20T14:54:15.823Z,22.5
2018-11-20T14:55:04.765Z,22.3
2018-11-20T14:55:55.151Z,22.2
2018-11-20T14:56:45.404Z,22
2018-11-20T14:57:49.765Z,21.8
2018-11-20T14:58:24.558Z,21.6
2018-11-20T14:59:15.248Z,21.6
2018-11-20T15:00:05.253Z,21.4
2018-11-20T15:00:55.128Z,21.4
2018-11-20T15:01:45.488Z,21.3
2018-11-20T15:03:25.525Z,21
2018-11-20T15:04:15.685Z,21
2018-11-20T15:05:05.691Z,21.4
2018-11-20T15:05:55.627Z,22
2018-11-20T15:06:47.038Z,22.4
2018-11-20T15:07:35.069Z,22.8
2018-11-20T15:08:42.204Z,23.1
2018-11-20T15:09:15.400Z,23.4
2018-11-20T15:10:06.434Z,23.6
2018-11-20T15:10:56.067Z,23.7
2018-11-20T15:11:45.970Z,23.9
2018-11-20T15:12:35.815Z,24
2018-11-20T15:13:25.717Z,24.2
2018-11-20T15:14:16.016Z,24.3
2018-11-20T15:15:06.498Z,24.4
2018-11-20T15:15:55.179Z,24.5
2018-11-20T15:17:00.859Z,24.6
2018-11-20T15:17:36.626Z,24.7
2018-11-20T15:18:25.989Z,24.7
2018-11-20T15:19:15.396Z,24.1
2018-11-20T15:20:06.512Z,23.5
2018-11-20T15:21:10.014Z,23
2018-11-20T15:21:46.024Z,22.7
2018-11-20T15:22:36.061Z,22.4
2018-11-20T15:23:26.676Z,22.3
2018-11-20T15:24:15.451Z,22.1
2018-11-20T15:25:07.884Z,22
2018-11-20T15:26:03.849Z,21.8
2018-11-20T15:26:46.193Z,21.7
2018-11-20T15:27:37.553Z,21.6
2018-11-20T15:28:27.527Z,21.5
2018-11-20T15:29:17.132Z,21.3
2018-11-20T15:30:06.846Z,21
2018-11-20T15:31:12.056Z,20.9
2018-11-20T15:31:47.711Z,20.6
2018-11-20T15:32:53.651Z,20.6
2018-11-20T15:33:28.348Z,20.4
2018-11-20T15:34:17.396Z,20.3
2018-11-20T15:35:08.203Z,20.3
2018-11-20T15:36:12.108Z,20.1
2018-11-20T15:36:49.190Z,20.1
2018-11-20T15:37:38.340Z,20.5
2018-11-20T15:38:41.474Z,21.3
2018-11-20T15:39:18.063Z,21.9
2018-11-20T15:40:08.732Z,22.3
2018-11-20T15:40:58.193Z,22.6
2018-11-20T15:41:49.625Z,22.9
2018-11-20T15:42:38.713Z,23.2
2018-11-20T15:43:27.495Z,23.4
2018-11-20T15:44:18.895Z,23.6
2018-11-20T15:45:08.395Z,23.8
2018-11-20T15:45:57.884Z,23.9
2018-11-20T15:47:03.975Z,24.1
2018-11-20T15:47:38.063Z,24.3
2018-11-20T15:48:29.082Z,24.3
2018-11-20T15:49:19.625Z,24.4
2018-11-20T15:50:08.652Z,24.6
2018-11-20T15:50:58.210Z,24.6
2018-11-20T15:51:47.705Z,24.7
2018-11-20T15:52:39.567Z,24.6
2018-11-20T15:53:28.947Z,24
2018-11-20T15:54:18.930Z,23.5
2018-11-20T15:55:08.459Z,23.1
2018-11-20T15:55:57.836Z,22.8
2018-11-20T15:56:48.999Z,22.5
2018-11-20T15:57:38.380Z,22.3
2018-11-20T15:58:29.716Z,22.1
2018-11-20T15:59:18.996Z,21.9
2018-11-20T16:00:23.894Z,21.8
2018-11-20T16:00:59.194Z,21.6
2018-11-20T16:01:49.354Z,21.5
2018-11-20T16:02:40.009Z,21.4
2018-11-20T16:03:30.953Z,21.3
2018-11-20T16:04:19.533Z,21.1
2018-11-20T16:05:09.279Z,20.8
2018-11-20T16:06:14.075Z,20.7
2018-11-20T16:06:48.261Z,20.6
2018-11-20T16:07:40.123Z,20.4
2018-11-20T16:08:30.111Z,20.3
2018-11-20T16:09:20.775Z,20.3
2018-11-20T16:10:09.972Z,20.1
2018-11-20T16:10:59.428Z,20.1
2018-11-20T16:11:50.810Z,20.6
2018-11-20T16:12:57.340Z,21.4
2018-11-20T16:13:29.512Z,22.1
2018-11-20T16:14:19.797Z,22.3
2018-11-20T16:15:09.753Z,22.7
2018-11-20T16:16:01.396Z,23.1
2018-11-20T16:16:50.187Z,23.2
2018-11-20T16:17:39.668Z,23.4
2018-11-20T16:18:29.828Z,23.6
2018-11-20T16:19:20.243Z,23.8
2018-11-20T16:20:24.342Z,23.9
2018-11-20T16:21:16.061Z,24.1
2018-11-20T16:21:51.200Z,24.2
2018-11-20T16:22:41.384Z,24.3
2018-11-20T16:23:31.340Z,24.4
2018-11-20T16:24:21.830Z,24.4
2018-11-20T16:25:11.192Z,24.6
2018-11-20T16:26:01.279Z,24.6
2018-11-20T16:26:51.395Z,24.7
2018-11-20T16:27:42.091Z,24.3
2018-11-20T16:28:46.837Z,23.6
2018-11-20T16:29:21.432Z,23.1
2018-11-20T16:30:11.061Z,22.9
2018-11-20T16:31:02.607Z,22.6
2018-11-20T16:31:52.085Z,22.3
2018-11-20T16:32:41.810Z,22.1
2018-11-20T16:33:30.951Z,22
2018-11-20T16:34:21.185Z,21.9
2018-11-20T16:35:11.042Z,21.8
2018-11-20T16:36:07.277Z,21.6
2018-11-20T16:36:51.769Z,21.5
2018-11-20T16:37:42.213Z,21.3